Betty K Viii — E5U2577 — position and weather

sailwx.info

Track history (hours):
 
Tides and Currents Weather Stations Pressure Air Temp Water Temp Dewpoint Dewpoint Depression Visibility Wind Speed Wind Dir Waves Ship Positions

Betty K Viii

Last reported at 2018-Jun-17 23:59 UTC. Time now 2018-Jun-18 00:21 UTC.
Position N 25°25' W 079°56'.

Length 78 m; draft 3.7 m.

Type: Cargo ship. MMSI: 518630000.

Date/timePositionNaut miles runAvg speedWind from/ knotsBaromVisibWave heightAir tempDewpointWater temp
2018-Jun-17 23:59N 25°25' W 079°56'  
2018-Jun-13 01:01N 25°50' W 079°35'010.5
2018-Jun-13 01:00N 25°50' W 079°35'510.6
2018-Jun-13 00:30N 25°49' W 079°41'510.5
2018-Jun-13 00:00N 25°48' W 079°47'510.3
2018-Jun-12 23:30N 25°48' W 079°53'510.6
2018-Jun-12 23:00N 25°47' W 079°58'510.4
2018-Jun-12 22:30N 25°46' W 080°04'4 8.2
2018-Jun-12 21:59N 25°46' W 080°09'2 4.5
2018-Jun-12 21:30N 25°46' W 080°11'1 2.4
2018-Jun-12 21:00N 25°47' W 080°12'1 2.1
2018-Jun-12 20:30N 25°47' W 080°14'1 2.6
2018-Jun-12 20:00N 25°48' W 080°15'1 1.1
2018-Jun-12 19:30N 25°48' W 080°15'0 0.0
2018-Jun-12 18:59N 25°48' W 080°15'0 0.0
2018-Jun-12 18:29N 25°48' W 080°15'0 0.0
2018-Jun-12 17:56N 25°48' W 080°15'0 0.0
2018-Jun-12 17:29N 25°48' W 080°15'0 0.0
2018-Jun-12 16:59N 25°48' W 080°15'0 0.0
2018-Jun-12 16:29N 25°48' W 080°15'0 0.0
2018-Jun-12 15:59N 25°48' W 080°15'0 0.0
2018-Jun-12 15:29N 25°48' W 080°15'0 0.0
2018-Jun-12 14:58N 25°48' W 080°15'0 0.0
2018-Jun-12 14:28N 25°48' W 080°15'0 0.0
2018-Jun-12 13:58N 25°48' W 080°15'0 0.0
2018-Jun-12 13:28N 25°48' W 080°15'0 0.0
2018-Jun-12 12:58N 25°48' W 080°15'0 0.0
2018-Jun-12 12:28N 25°48' W 080°15'0 0.0
2018-Jun-12 11:58N 25°48' W 080°15'0 0.0
2018-Jun-12 11:28N 25°48' W 080°15'0 0.0
2018-Jun-12 10:58N 25°48' W 080°15'0 0.0
2018-Jun-12 10:28N 25°48' W 080°15'0 0.0
2018-Jun-12 09:58N 25°48' W 080°15'0 0.0
2018-Jun-12 09:28N 25°48' W 080°15'0 0.0
2018-Jun-12 08:58N 25°48' W 080°15'0 0.0
2018-Jun-12 08:28N 25°48' W 080°15'0 0.0
2018-Jun-12 07:58N 25°48' W 080°15'0 0.0
2018-Jun-12 07:28N 25°48' W 080°15'0 0.0
2018-Jun-12 06:58N 25°48' W 080°15'0 0.0
2018-Jun-12 06:28N 25°48' W 080°15'0 0.0
2018-Jun-12 05:58N 25°48' W 080°15'0 0.0
2018-Jun-12 05:28N 25°48' W 080°15'0 0.0
2018-Jun-12 04:58N 25°48' W 080°15'0 0.0
2018-Jun-12 04:28N 25°48' W 080°15'0 0.0
2018-Jun-12 03:55N 25°48' W 080°15'0 0.0
2018-Jun-12 03:28N 25°48' W 080°15'0 0.0
2018-Jun-12 02:58N 25°48' W 080°15'0 0.0
2018-Jun-12 02:28N 25°48' W 080°15'0 0.0
2018-Jun-12 01:58N 25°48' W 080°15'0 0.0
2018-Jun-12 01:28N 25°48' W 080°15'0 0.0
2018-Jun-12 00:58N 25°48' W 080°15'0 0.0
2018-Jun-12 00:25N 25°48' W 080°15'0 0.0
2018-Jun-11 23:52N 25°48' W 080°15'0 0.0
2018-Jun-11 23:28N 25°48' W 080°15'0 0.0
2018-Jun-11 22:52N 25°48' W 080°15'0 0.0
2018-Jun-11 22:28N 25°48' W 080°15'0 0.0
2018-Jun-11 21:52N 25°48' W 080°15'0 0.0
2018-Jun-11 21:28N 25°48' W 080°15'0 0.0
2018-Jun-11 20:52N 25°48' W 080°15'0 0.0
2018-Jun-11 20:28N 25°48' W 080°15'0 1.0
2018-Jun-11 20:01N 25°48' W 080°15'1 2.3
2018-Jun-11 19:30N 25°47' W 080°14'2 3.0
2018-Jun-11 19:00N 25°47' W 080°12'1 2.3
2018-Jun-11 18:31N 25°46' W 080°11'3 6.7
2018-Jun-11 18:01N 25°46' W 080°07'2 4.8
2018-Jun-11 17:31N 25°46' W 080°05'4 8.5
2018-Jun-11 17:00N 25°42' W 080°03'4 8.6
2018-Jun-11 16:30N 25°38' W 080°01'4 9.0
2018-Jun-11 16:01N 25°34' W 079°60'  
Track history (hours):
 
Tides and Currents Weather Stations Pressure Air Temp Water Temp Dewpoint Dewpoint Depression Visibility Wind Speed Wind Dir Waves Ship Positions

Betty K Viii

Last reported at 2018-Jun-17 23:59 UTC. Time now 2018-Jun-18 00:21 UTC.
Position N 25°25' W 079°56'.

Length 78 m; draft 3.7 m.

Type: Cargo ship. MMSI: 518630000.

Date/timePositionNaut miles runAvg speedWind from/ knotsBaromVisibWave heightAir tempDewpointWater temp
2018-Jun-17 23:59N 25°25' W 079°56'  
2018-Jun-13 01:01N 25°50' W 079°35'010.5
2018-Jun-13 01:00N 25°50' W 079°35'510.6
2018-Jun-13 00:30N 25°49' W 079°41'510.5
2018-Jun-13 00:00N 25°48' W 079°47'510.3
2018-Jun-12 23:30N 25°48' W 079°53'510.6
2018-Jun-12 23:00N 25°47' W 079°58'510.4
2018-Jun-12 22:30N 25°46' W 080°04'4 8.2
2018-Jun-12 21:59N 25°46' W 080°09'2 4.5
2018-Jun-12 21:30N 25°46' W 080°11'1 2.4
2018-Jun-12 21:00N 25°47' W 080°12'1 2.1
2018-Jun-12 20:30N 25°47' W 080°14'1 2.6
2018-Jun-12 20:00N 25°48' W 080°15'1 1.1
2018-Jun-12 19:30N 25°48' W 080°15'0 0.0
2018-Jun-12 18:59N 25°48' W 080°15'0 0.0
2018-Jun-12 18:29N 25°48' W 080°15'0 0.0
2018-Jun-12 17:56N 25°48' W 080°15'0 0.0
2018-Jun-12 17:29N 25°48' W 080°15'0 0.0
2018-Jun-12 16:59N 25°48' W 080°15'0 0.0
2018-Jun-12 16:29N 25°48' W 080°15'0 0.0
2018-Jun-12 15:59N 25°48' W 080°15'0 0.0
2018-Jun-12 15:29N 25°48' W 080°15'0 0.0
2018-Jun-12 14:58N 25°48' W 080°15'0 0.0
2018-Jun-12 14:28N 25°48' W 080°15'0 0.0
2018-Jun-12 13:58N 25°48' W 080°15'0 0.0
2018-Jun-12 13:28N 25°48' W 080°15'0 0.0
2018-Jun-12 12:58N 25°48' W 080°15'0 0.0
2018-Jun-12 12:28N 25°48' W 080°15'0 0.0
2018-Jun-12 11:58N 25°48' W 080°15'0 0.0
2018-Jun-12 11:28N 25°48' W 080°15'0 0.0
2018-Jun-12 10:58N 25°48' W 080°15'0 0.0
2018-Jun-12 10:28N 25°48' W 080°15'0 0.0
2018-Jun-12 09:58N 25°48' W 080°15'0 0.0
2018-Jun-12 09:28N 25°48' W 080°15'0 0.0
2018-Jun-12 08:58N 25°48' W 080°15'0 0.0
2018-Jun-12 08:28N 25°48' W 080°15'0 0.0
2018-Jun-12 07:58N 25°48' W 080°15'0 0.0
2018-Jun-12 07:28N 25°48' W 080°15'0 0.0
2018-Jun-12 06:58N 25°48' W 080°15'0 0.0
2018-Jun-12 06:28N 25°48' W 080°15'0 0.0
2018-Jun-12 05:58N 25°48' W 080°15'0 0.0
2018-Jun-12 05:28N 25°48' W 080°15'0 0.0
2018-Jun-12 04:58N 25°48' W 080°15'0 0.0
2018-Jun-12 04:28N 25°48' W 080°15'0 0.0
2018-Jun-12 03:55N 25°48' W 080°15'0 0.0
2018-Jun-12 03:28N 25°48' W 080°15'0 0.0
2018-Jun-12 02:58N 25°48' W 080°15'0 0.0
2018-Jun-12 02:28N 25°48' W 080°15'0 0.0
2018-Jun-12 01:58N 25°48' W 080°15'0 0.0
2018-Jun-12 01:28N 25°48' W 080°15'0 0.0
2018-Jun-12 00:58N 25°48' W 080°15'0 0.0
2018-Jun-12 00:25N 25°48' W 080°15'0 0.0
2018-Jun-11 23:52N 25°48' W 080°15'0 0.0
2018-Jun-11 23:28N 25°48' W 080°15'0 0.0
2018-Jun-11 22:52N 25°48' W 080°15'0 0.0
2018-Jun-11 22:28N 25°48' W 080°15'0 0.0
2018-Jun-11 21:52N 25°48' W 080°15'0 0.0
2018-Jun-11 21:28N 25°48' W 080°15'0 0.0
2018-Jun-11 20:52N 25°48' W 080°15'0 0.0
2018-Jun-11 20:28N 25°48' W 080°15'0 1.0
2018-Jun-11 20:01N 25°48' W 080°15'1 2.3
2018-Jun-11 19:30N 25°47' W 080°14'2 3.0
2018-Jun-11 19:00N 25°47' W 080°12'1 2.3
2018-Jun-11 18:31N 25°46' W 080°11'3 6.7
2018-Jun-11 18:01N 25°46' W 080°07'2 4.8
2018-Jun-11 17:31N 25°46' W 080°05'4 8.5
2018-Jun-11 17:00N 25°42' W 080°03'4 8.6
2018-Jun-11 16:30N 25°38' W 080°01'4 9.0
2018-Jun-11 16:01N 25°34' W 079°60'  

Dump ship's entire track history